Kezdőlap
METAR-TAF:

METAR-TAF

Repülőterek :

Marshfield, Massachusetts, Amerikai Egyesült Államok

földrajzi szélesség: 42-05-54N, földrajzi hosszúság: 070-40-20W, magasság: 3 m

Jelenlegi meteorológiai megfigyelések

A jelentés 22 perccel ezelõtt készült, 05:35 UTC
Különbözõ irányokból fújó szél 4 kt
Hőmérséklet 23°C
Páratartalom 100%
Légköri nyomás 1015 hPa
Látótávolság: 16.1 km
Borult 5000 lábon

METAR: KGHG 090535Z AUTO VRB04KT 10SM OVC050 23/23 A2997 RMK AO2

Idő: 01:57 (05:57 UTC)


TAF: hiányzik

Meteorológiai megfigyelések és előrejelzések több, mint 4000 repülőtéren (METAR és TAF jelentéseket).

A térképen piros és sárga pontok jelzik az elérhető meteorológiai állomásokat.

Mozgassa az egeret a pont fölött, hogy megjelenjen az állomás neve.

Azután kattintson az időjárási megfigyelések és előrejelzések megtekintéséhez.

A térkép megváltoztatása: kattintson a fekete keresztel jelölt zöld gombra ráközelítéshez, a vonallal jelölt zöld gombra távolításhoz, vagy a zöld nyilakra a szomszédos térképek eléréséhez.


METAR-TAF: